createdAt,value
2023-05-14T00:00:36.443Z,49703.09
2023-05-14T00:03:03.554Z,49687.13
2023-05-14T00:05:30.302Z,49675.19
2023-05-14T00:07:57.012Z,49697.09
2023-05-14T00:10:23.857Z,49667.19
2023-05-14T00:12:51.771Z,49703.09
2023-05-14T00:15:18.820Z,49681.16
2023-05-14T00:17:45.620Z,49687.13
2023-05-14T00:20:12.566Z,49697.09
2023-05-14T00:22:40.140Z,49687.13
2023-05-14T00:25:08.009Z,49715.03
2023-05-14T00:27:34.835Z,49675.19
2023-05-14T00:30:01.564Z,49651.25
2023-05-14T00:32:28.226Z,49683.16
2023-05-14T00:34:54.945Z,49683.16
2023-05-14T00:37:21.689Z,49719.03
2023-05-14T00:39:48.802Z,49691.13
2023-05-14T00:42:15.597Z,49681.16
2023-05-14T00:44:42.308Z,49697.09
2023-05-14T00:47:09.309Z,49715.03
2023-05-14T00:49:36.243Z,49707.06
2023-05-14T00:52:03.792Z,49679.16
2023-05-14T00:54:30.689Z,49681.16
2023-05-14T00:56:58.258Z,49697.09
2023-05-14T00:59:25.921Z,49731.00
2023-05-14T01:01:52.890Z,49713.06
2023-05-14T01:04:19.866Z,49675.19
2023-05-14T01:07:17.114Z,49740.97
2023-05-14T01:09:46.730Z,49703.09
2023-05-14T01:12:22.596Z,49679.16
2023-05-14T01:15:02.476Z,49681.16
2023-05-14T01:17:33.180Z,49671.19
2023-05-14T01:20:00.642Z,49687.13
2023-05-14T01:22:27.335Z,49717.03
2023-05-14T01:24:54.073Z,49727.00
2023-05-14T01:27:42.976Z,49665.22
2023-05-14T01:30:28.175Z,49685.13
2023-05-14T01:32:58.216Z,49717.03
2023-05-14T01:35:29.065Z,49729.00
2023-05-14T01:37:57.661Z,49727.00
2023-05-14T01:40:25.483Z,49689.13
2023-05-14T01:42:53.234Z,49707.06
2023-05-14T01:45:24.118Z,49719.03
2023-05-14T01:47:51.664Z,49734.97
2023-05-14T01:50:18.700Z,49725.00
2023-05-14T01:52:45.614Z,49733.00
2023-05-14T01:55:12.350Z,49703.09
2023-05-14T01:57:39.022Z,49687.13
2023-05-14T02:00:06.996Z,49731.00
2023-05-14T02:02:41.039Z,49752.91
2023-05-14T02:05:11.506Z,49734.97
2023-05-14T02:07:38.293Z,49695.09
2023-05-14T02:10:05.696Z,49723.03
2023-05-14T02:12:32.527Z,49721.03
2023-05-14T02:15:00.174Z,49705.06
2023-05-14T02:17:27.880Z,49750.94
2023-05-14T02:19:54.673Z,49734.97
2023-05-14T02:22:21.416Z,49721.03
2023-05-14T02:24:49.738Z,49742.94
2023-05-14T02:27:22.692Z,49707.06
2023-05-14T02:29:49.383Z,49731.00
2023-05-14T02:32:16.144Z,49685.13
2023-05-14T02:34:42.817Z,49738.97
2023-05-14T02:37:09.551Z,49738.97
2023-05-14T02:39:37.062Z,49731.00
2023-05-14T02:42:03.879Z,49727.00
2023-05-14T02:44:31.850Z,49727.00
2023-05-14T02:46:58.645Z,49719.03
2023-05-14T02:49:25.444Z,49715.03
2023-05-14T02:51:54.267Z,49734.97
2023-05-14T02:54:21.031Z,49778.84
2023-05-14T02:56:47.882Z,49715.03
2023-05-14T02:59:14.642Z,49723.03
2023-05-14T03:01:41.939Z,49731.00
2023-05-14T03:04:09.200Z,49731.00
2023-05-14T03:06:35.861Z,49727.00
2023-05-14T03:09:02.739Z,49713.06
2023-05-14T03:11:29.555Z,49736.97
2023-05-14T03:13:56.277Z,49723.03
2023-05-14T03:16:23.007Z,49701.09
2023-05-14T03:18:49.767Z,49746.94
2023-05-14T03:21:16.605Z,49742.94
2023-05-14T03:23:43.231Z,49746.94
2023-05-14T03:26:10.324Z,49721.03
2023-05-14T03:28:37.059Z,49731.00
2023-05-14T03:31:03.877Z,49723.03
2023-05-14T03:33:31.204Z,49746.94
2023-05-14T03:35:57.990Z,49742.94
2023-05-14T03:38:24.697Z,49719.03
2023-05-14T03:40:51.380Z,49729.00
2023-05-14T03:43:18.175Z,49691.13
2023-05-14T03:45:44.913Z,49746.94
2023-05-14T03:48:11.667Z,49750.94
2023-05-14T03:50:38.785Z,49752.91
2023-05-14T03:53:06.524Z,49738.97
2023-05-14T03:55:33.173Z,49744.94
2023-05-14T03:57:59.921Z,49768.88
2023-05-14T04:00:27.398Z,49727.00
2023-05-14T04:02:54.389Z,49770.88
2023-05-14T04:05:23.544Z,49719.03
2023-05-14T04:07:50.244Z,49697.09
2023-05-14T04:10:16.967Z,49748.94
2023-05-14T04:12:43.692Z,49711.06
2023-05-14T04:15:10.989Z,49734.97
2023-05-14T04:17:37.739Z,49736.97
2023-05-14T04:20:04.983Z,49748.94
2023-05-14T04:22:32.215Z,49723.03
2023-05-14T04:24:58.970Z,49758.91
2023-05-14T04:27:25.801Z,49729.00
2023-05-14T04:29:52.494Z,49750.94
2023-05-14T04:32:19.115Z,49723.03
2023-05-14T04:34:46.949Z,49729.00
2023-05-14T04:37:14.016Z,49754.91
2023-05-14T04:39:40.689Z,49764.88
2023-05-14T04:42:07.887Z,49754.91
2023-05-14T04:44:36.197Z,49770.88
2023-05-14T04:47:02.920Z,49778.84
2023-05-14T04:49:30.438Z,49727.00
2023-05-14T04:51:57.195Z,49727.00
2023-05-14T04:54:24.098Z,49742.94
2023-05-14T04:56:51.210Z,49770.88
2023-05-14T04:59:18.036Z,49736.97
2023-05-14T05:01:45.873Z,49790.81
2023-05-14T05:04:12.720Z,49738.97
2023-05-14T05:06:39.755Z,49778.84
2023-05-14T05:09:06.394Z,49742.94
2023-05-14T05:11:33.037Z,49742.94
2023-05-14T05:13:59.743Z,49754.91
2023-05-14T05:16:26.447Z,49717.03
2023-05-14T05:18:53.212Z,49758.91
2023-05-14T05:21:20.146Z,49752.91
2023-05-14T05:23:46.848Z,49758.91
2023-05-14T05:26:13.544Z,49736.97
2023-05-14T05:28:40.363Z,49719.03
2023-05-14T05:31:07.205Z,49752.91
2023-05-14T05:33:35.068Z,49748.94
2023-05-14T05:36:01.860Z,49734.97
2023-05-14T05:38:28.561Z,49744.94
2023-05-14T05:40:55.459Z,49742.94
2023-05-14T05:43:22.185Z,49703.09
2023-05-14T05:45:48.764Z,49750.94
2023-05-14T05:48:15.525Z,49750.94
2023-05-14T05:50:44.310Z,49729.00
2023-05-14T05:53:10.971Z,49764.88
2023-05-14T05:55:37.735Z,49731.00
2023-05-14T05:58:04.631Z,49721.03
2023-05-14T06:00:31.504Z,49746.94
2023-05-14T06:02:58.185Z,49727.00
2023-05-14T06:05:24.958Z,49734.97
2023-05-14T06:07:53.463Z,49768.88
2023-05-14T06:10:20.171Z,49711.06
2023-05-14T06:12:46.860Z,49687.13
2023-05-14T06:15:13.556Z,49778.84
2023-05-14T06:17:40.345Z,49736.97
2023-05-14T06:20:08.027Z,49733.00
2023-05-14T06:22:34.996Z,49768.88
2023-05-14T06:25:01.833Z,49742.94
2023-05-14T06:27:28.634Z,49711.06
2023-05-14T06:29:55.599Z,49703.09
2023-05-14T06:32:22.357Z,49746.94
2023-05-14T06:34:49.078Z,49717.03
2023-05-14T06:37:15.717Z,49703.09
2023-05-14T06:39:50.241Z,49748.94
2023-05-14T06:42:17.925Z,49734.97
2023-05-14T06:44:45.350Z,49711.06
2023-05-14T06:47:12.124Z,49746.94
2023-05-14T06:49:39.339Z,49723.03
2023-05-14T06:52:06.453Z,49727.00
2023-05-14T06:54:33.271Z,49723.03
2023-05-14T06:56:59.922Z,49727.00
2023-05-14T06:59:26.590Z,49679.16
2023-05-14T07:01:53.327Z,49699.09
2023-05-14T07:04:20.079Z,49742.94
2023-05-14T07:06:46.871Z,49691.13
2023-05-14T07:09:13.573Z,49717.03
2023-05-14T07:11:40.275Z,49719.03
2023-05-14T07:14:06.958Z,49727.00
2023-05-14T07:16:33.694Z,49691.13
2023-05-14T07:19:00.453Z,49715.03
2023-05-14T07:21:27.965Z,49703.09
2023-05-14T07:23:54.673Z,49689.13
2023-05-14T07:26:21.535Z,49725.00
2023-05-14T07:28:48.170Z,49663.22
2023-05-14T07:31:14.870Z,49701.09
2023-05-14T07:33:41.588Z,49691.13
2023-05-14T07:36:08.919Z,49683.16
2023-05-14T07:38:35.801Z,49687.13
2023-05-14T07:41:02.873Z,49675.19
2023-05-14T07:43:29.569Z,49663.22
2023-05-14T07:45:56.585Z,49691.13
2023-05-14T07:48:23.392Z,49679.16
2023-05-14T07:50:50.176Z,49687.13
2023-05-14T07:53:16.879Z,49661.22
2023-05-14T07:55:45.033Z,49641.28
2023-05-14T07:58:11.740Z,49677.16
2023-05-14T08:00:38.442Z,49675.19
2023-05-14T08:03:05.235Z,49619.34
2023-05-14T08:05:33.010Z,49703.09
2023-05-14T08:07:59.655Z,49679.16
2023-05-14T08:10:27.018Z,49679.16
2023-05-14T08:12:53.939Z,49693.13
2023-05-14T08:15:21.061Z,49695.09
2023-05-14T08:17:47.724Z,49697.09
2023-05-14T08:20:14.552Z,49671.19
2023-05-14T08:22:41.396Z,49699.09
2023-05-14T08:25:08.297Z,49734.97
2023-05-14T08:27:35.073Z,49697.09
2023-05-14T08:30:01.743Z,49655.25
2023-05-14T08:32:28.525Z,49671.19
2023-05-14T08:34:55.300Z,49659.22
2023-05-14T08:37:21.980Z,49659.22
2023-05-14T08:39:49.047Z,49681.16
2023-05-14T08:42:18.552Z,49667.19
2023-05-14T08:44:50.241Z,49623.34
2023-05-14T08:47:21.460Z,49659.22
2023-05-14T08:49:54.918Z,49659.22
2023-05-14T08:52:22.845Z,49691.13
2023-05-14T08:54:51.306Z,49659.22
2023-05-14T08:57:18.905Z,49647.25
2023-05-14T08:59:45.608Z,49665.22
2023-05-14T09:02:15.086Z,49693.13
2023-05-14T09:04:42.978Z,49703.09
2023-05-14T09:07:09.528Z,49653.25
2023-05-14T09:09:36.716Z,49659.22
2023-05-14T09:12:03.676Z,49687.13
2023-05-14T09:14:30.376Z,49647.25
2023-05-14T09:16:57.198Z,49679.16
2023-05-14T09:19:24.279Z,49641.28
2023-05-14T09:21:51.120Z,49669.19
2023-05-14T09:24:25.982Z,49663.22
2023-05-14T09:26:54.354Z,49625.34
2023-05-14T09:29:21.094Z,49647.25
2023-05-14T09:31:51.612Z,49625.34
2023-05-14T09:34:28.723Z,49659.22
2023-05-14T09:37:04.213Z,49607.41
2023-05-14T09:39:31.906Z,49615.38
2023-05-14T09:41:59.059Z,49655.25
2023-05-14T09:44:26.176Z,49659.22
2023-05-14T09:46:53.864Z,49667.19
2023-05-14T09:49:21.084Z,49639.28
2023-05-14T09:51:49.578Z,49671.19
2023-05-14T09:54:16.909Z,49643.28
2023-05-14T09:56:44.212Z,49621.34
2023-05-14T09:59:11.085Z,49651.25
2023-05-14T10:01:38.013Z,49613.38
2023-05-14T10:04:07.683Z,49647.25
2023-05-14T10:06:38.194Z,49615.38
2023-05-14T10:09:09.973Z,49653.25
2023-05-14T10:11:38.787Z,49643.28
2023-05-14T10:14:18.015Z,49567.53
2023-05-14T10:16:50.503Z,49623.34
2023-05-14T10:19:20.142Z,49611.38
2023-05-14T10:21:57.271Z,49633.31
2023-05-14T10:24:25.012Z,49595.44
2023-05-14T10:26:51.696Z,49631.31
2023-05-14T10:29:18.480Z,49645.28
2023-05-14T10:31:55.912Z,49633.31
2023-05-14T10:34:34.693Z,49597.44
2023-05-14T10:37:02.865Z,49629.31
2023-05-14T10:40:02.053Z,49591.44
2023-05-14T10:42:35.373Z,49615.38
2023-05-14T10:45:18.183Z,49601.41
2023-05-14T10:47:47.026Z,49631.31
2023-05-14T10:50:17.569Z,49627.31
2023-05-14T10:52:46.172Z,49591.44
2023-05-14T10:55:14.900Z,49637.28
2023-05-14T10:57:44.101Z,49661.22
2023-05-14T11:00:12.799Z,49591.44
2023-05-14T11:02:44.404Z,49599.41
2023-05-14T11:05:14.370Z,49621.34
2023-05-14T11:07:45.807Z,49583.47
2023-05-14T11:10:14.817Z,49601.41
2023-05-14T11:12:46.844Z,49583.47
2023-05-14T11:15:16.814Z,49601.41
2023-05-14T11:17:45.223Z,49591.44
2023-05-14T11:20:12.783Z,49619.34
2023-05-14T11:22:41.287Z,49563.53
2023-05-14T11:25:09.100Z,49589.44
2023-05-14T11:27:36.719Z,49597.44
2023-05-14T11:30:04.092Z,49601.41
2023-05-14T11:32:35.067Z,49559.56
2023-05-14T11:35:01.756Z,49599.41
2023-05-14T11:37:30.661Z,49549.59
2023-05-14T11:40:00.684Z,49583.47
2023-05-14T11:42:27.463Z,49569.50
2023-05-14T11:44:54.181Z,49607.41
2023-05-14T11:47:21.749Z,49585.47
2023-05-14T11:49:49.189Z,49569.50
2023-05-14T11:52:19.414Z,49561.53
2023-05-14T11:54:46.841Z,49577.50
2023-05-14T11:57:19.961Z,49567.53
2023-05-14T11:59:49.069Z,49539.63
2023-05-14T12:02:18.001Z,49535.63
2023-05-14T12:04:49.549Z,49553.56
2023-05-14T12:07:16.989Z,49563.53
2023-05-14T12:09:51.730Z,49565.53
2023-05-14T12:12:22.714Z,49547.59
2023-05-14T12:14:50.630Z,49547.59
2023-05-14T12:17:23.870Z,49575.50
2023-05-14T12:19:52.135Z,49559.56
2023-05-14T12:22:21.162Z,49547.59
2023-05-14T12:24:58.010Z,49527.66
2023-05-14T12:27:26.748Z,49521.69
2023-05-14T12:30:12.848Z,49549.59
2023-05-14T12:32:46.555Z,49511.72
2023-05-14T12:35:13.232Z,49539.63
2023-05-14T12:37:40.061Z,49531.63
2023-05-14T12:40:09.488Z,49557.56
2023-05-14T12:42:36.652Z,49523.66
2023-05-14T12:45:07.188Z,49523.66
2023-05-14T12:47:34.175Z,49543.59
2023-05-14T12:50:00.876Z,49535.63
2023-05-14T12:52:37.406Z,49507.72
2023-05-14T12:55:06.820Z,49511.72
2023-05-14T12:57:35.284Z,49515.69
2023-05-14T13:00:06.196Z,49523.66
2023-05-14T13:02:32.892Z,49527.66
2023-05-14T13:05:02.671Z,49521.69
2023-05-14T13:07:30.371Z,49515.69
2023-05-14T13:09:57.379Z,49525.66
2023-05-14T13:12:24.370Z,49533.63
2023-05-14T13:14:51.001Z,49547.59
2023-05-14T13:17:17.772Z,49483.81
2023-05-14T13:19:44.449Z,49517.69
2023-05-14T13:22:11.165Z,49513.69
2023-05-14T13:24:37.943Z,49487.78
2023-05-14T13:27:04.767Z,49495.75
2023-05-14T13:29:31.738Z,49537.63
2023-05-14T13:31:58.524Z,49507.72
2023-05-14T13:34:25.386Z,49525.66
2023-05-14T13:36:52.192Z,49513.69
2023-05-14T13:39:22.694Z,49499.75
2023-05-14T13:41:50.744Z,49529.66
2023-05-14T13:44:17.402Z,49525.66
2023-05-14T13:46:44.226Z,49511.72
2023-05-14T13:49:11.148Z,49535.63
2023-05-14T13:51:37.776Z,49487.78
2023-05-14T13:54:04.535Z,49527.66
2023-05-14T13:56:31.240Z,49509.72
2023-05-14T13:58:57.984Z,49495.75
2023-05-14T14:01:24.699Z,49491.78
2023-05-14T14:03:51.386Z,49487.78
2023-05-14T14:06:18.099Z,49513.69
2023-05-14T14:08:44.828Z,49485.78
2023-05-14T14:11:12.948Z,49479.81
2023-05-14T14:13:40.228Z,49503.72
2023-05-14T14:16:07.148Z,49475.81
2023-05-14T14:18:33.926Z,49499.75
2023-05-14T14:21:00.766Z,49531.63
2023-05-14T14:23:27.446Z,49491.78
2023-05-14T14:25:54.176Z,49511.72
2023-05-14T14:28:20.834Z,49503.72
2023-05-14T14:30:47.650Z,49495.75
2023-05-14T14:33:14.498Z,49491.78
2023-05-14T14:35:41.226Z,49471.84
2023-05-14T14:38:07.885Z,49469.84
2023-05-14T14:40:34.834Z,49475.81
2023-05-14T14:43:02.263Z,49475.81
2023-05-14T14:45:29.137Z,49471.84
2023-05-14T14:48:26.325Z,49503.72
2023-05-14T14:50:54.705Z,49471.84
2023-05-14T14:53:22.222Z,49503.72
2023-05-14T14:55:49.903Z,49521.69
2023-05-14T14:58:18.104Z,49495.75
2023-05-14T15:00:45.606Z,49489.78
2023-05-14T15:03:12.515Z,49495.75
2023-05-14T15:05:39.336Z,49451.91
2023-05-14T15:08:06.198Z,49505.72
2023-05-14T15:10:33.166Z,49473.84
2023-05-14T15:13:00.052Z,49501.75
2023-05-14T15:15:26.750Z,49483.81
2023-05-14T15:17:53.440Z,49471.84
2023-05-14T15:20:20.182Z,49475.81
2023-05-14T15:22:46.943Z,49467.84
2023-05-14T15:25:13.600Z,49505.72
2023-05-14T15:27:40.433Z,49491.78
2023-05-14T15:30:07.791Z,49507.72
2023-05-14T15:32:34.613Z,49511.72
2023-05-14T15:35:01.421Z,49545.59
2023-05-14T15:37:28.300Z,49535.63
2023-05-14T15:39:55.018Z,49539.63
2023-05-14T15:42:21.707Z,49545.59
2023-05-14T15:44:48.305Z,49543.59
2023-05-14T15:47:15.153Z,49499.75
2023-05-14T15:49:41.945Z,49519.69
2023-05-14T15:52:08.563Z,49495.75
2023-05-14T15:54:35.345Z,49515.69
2023-05-14T15:57:02.062Z,49549.59
2023-05-14T15:59:28.748Z,49505.72
2023-05-14T16:01:55.854Z,49539.63
2023-05-14T16:04:22.583Z,49491.78
2023-05-14T16:06:49.340Z,49519.69
2023-05-14T16:09:16.027Z,49511.72
2023-05-14T16:11:42.672Z,49527.66
2023-05-14T16:14:09.431Z,49543.59
2023-05-14T16:16:36.848Z,49527.66
2023-05-14T16:19:03.585Z,49549.59
2023-05-14T16:21:30.456Z,49555.56
2023-05-14T16:23:57.235Z,49559.56
2023-05-14T16:26:23.897Z,49579.47
2023-05-14T16:28:50.638Z,49555.56
2023-05-14T16:31:17.548Z,49601.41
2023-05-14T16:33:44.215Z,49539.63
2023-05-14T16:36:11.099Z,49587.47
2023-05-14T16:38:41.566Z,49539.63
2023-05-14T16:41:14.946Z,49569.50
2023-05-14T16:43:41.659Z,49575.50
2023-05-14T16:46:08.552Z,49563.53
2023-05-14T16:48:35.243Z,49599.41
2023-05-14T16:51:01.984Z,49563.53
2023-05-14T16:53:28.643Z,49591.44
2023-05-14T16:55:55.473Z,49583.47
2023-05-14T16:58:22.175Z,49579.47
2023-05-14T17:00:48.883Z,49577.50
2023-05-14T17:03:15.640Z,49571.50
2023-05-14T17:05:42.837Z,49607.41
2023-05-14T17:08:09.552Z,49589.44
2023-05-14T17:10:36.340Z,49615.38
2023-05-14T17:13:03.276Z,49583.47
2023-05-14T17:15:30.077Z,49563.53
2023-05-14T17:17:56.811Z,49587.47
2023-05-14T17:20:23.570Z,49611.38
2023-05-14T17:22:50.950Z,49575.50
2023-05-14T17:25:17.773Z,49611.38
2023-05-14T17:27:44.530Z,49587.47
2023-05-14T17:30:11.566Z,49633.31
2023-05-14T17:32:38.340Z,49617.38
2023-05-14T17:35:05.722Z,49591.44
2023-05-14T17:37:32.422Z,49613.38
2023-05-14T17:39:59.204Z,49623.34
2023-05-14T17:42:25.896Z,49587.47
2023-05-14T17:44:53.520Z,49623.34
2023-05-14T17:47:20.903Z,49607.41
2023-05-14T17:49:47.863Z,49629.31
2023-05-14T17:52:14.564Z,49595.44
2023-05-14T17:54:41.238Z,49601.41
2023-05-14T17:57:08.271Z,49635.31
2023-05-14T17:59:35.083Z,49633.31
2023-05-14T18:02:01.800Z,49617.38
2023-05-14T18:04:28.503Z,49603.41
2023-05-14T18:06:55.273Z,49615.38
2023-05-14T18:09:22.028Z,49633.31
2023-05-14T18:11:48.676Z,49595.44
2023-05-14T18:14:15.534Z,49609.38
2023-05-14T18:16:42.209Z,49627.31
2023-05-14T18:19:09.150Z,49619.34
2023-05-14T18:21:36.035Z,49625.34
2023-05-14T18:24:02.753Z,49635.31
2023-05-14T18:26:30.183Z,49603.41
2023-05-14T18:28:58.238Z,49681.16
2023-05-14T18:31:27.426Z,49673.19
2023-05-14T18:33:54.389Z,49645.28
2023-05-14T18:36:21.222Z,49637.28
2023-05-14T18:38:47.904Z,49645.28
2023-05-14T18:41:14.557Z,49675.19
2023-05-14T18:43:41.524Z,49611.38
2023-05-14T18:46:08.479Z,49655.25
2023-05-14T18:48:35.230Z,49643.28
2023-05-14T18:51:01.914Z,49647.25
2023-05-14T18:53:29.327Z,49641.28
2023-05-14T18:55:56.205Z,49635.31
2023-05-14T18:58:23.009Z,49639.28
2023-05-14T19:00:49.640Z,49651.25
2023-05-14T19:03:16.440Z,49627.31
2023-05-14T19:05:43.224Z,49659.22
2023-05-14T19:08:09.923Z,49653.25
2023-05-14T19:10:36.608Z,49639.28
2023-05-14T19:13:03.574Z,49655.25
2023-05-14T19:15:30.542Z,49633.31
2023-05-14T19:17:57.343Z,49655.25
2023-05-14T19:20:24.321Z,49631.31
2023-05-14T19:22:51.054Z,49633.31
2023-05-14T19:25:17.782Z,49653.25
2023-05-14T19:27:45.525Z,49637.28
2023-05-14T19:30:12.998Z,49631.31
2023-05-14T19:32:39.674Z,49671.19
2023-05-14T19:35:06.598Z,49647.25
2023-05-14T19:37:33.410Z,49667.19
2023-05-14T19:40:00.279Z,49643.28
2023-05-14T19:42:26.935Z,49621.34
2023-05-14T19:44:54.288Z,49667.19
2023-05-14T19:47:21.064Z,49667.19
2023-05-14T19:49:47.745Z,49651.25
2023-05-14T19:52:14.390Z,49643.28
2023-05-14T19:54:41.074Z,49673.19
2023-05-14T19:57:07.757Z,49629.31
2023-05-14T19:59:34.821Z,49623.34
2023-05-14T20:02:02.235Z,49635.31
2023-05-14T20:04:28.920Z,49657.22
2023-05-14T20:06:56.862Z,49633.31
2023-05-14T20:09:23.393Z,49639.28
2023-05-14T20:11:50.402Z,49661.22
2023-05-14T20:14:17.055Z,49683.16
2023-05-14T20:16:43.830Z,49683.16
2023-05-14T20:19:11.050Z,49683.16
2023-05-14T20:21:37.779Z,49633.31
2023-05-14T20:24:04.650Z,49655.25
2023-05-14T20:26:31.345Z,49633.31
2023-05-14T20:28:58.058Z,49643.28
2023-05-14T20:31:24.761Z,49705.06
2023-05-14T20:33:51.421Z,49679.16
2023-05-14T20:36:18.482Z,49705.06
2023-05-14T20:38:45.219Z,49687.13
2023-05-14T20:41:12.112Z,49675.19
2023-05-14T20:43:38.749Z,49679.16
2023-05-14T20:46:07.212Z,49655.25
2023-05-14T20:48:33.934Z,49687.13
2023-05-14T20:51:01.700Z,49695.09
2023-05-14T20:53:28.766Z,49667.19
2023-05-14T20:55:55.506Z,49661.22
2023-05-14T20:58:22.249Z,49647.25
2023-05-14T21:00:48.906Z,49655.25
2023-05-14T21:03:15.885Z,49685.13
2023-05-14T21:05:43.789Z,49667.19
2023-05-14T21:08:10.892Z,49665.22
2023-05-14T21:10:37.728Z,49671.19
2023-05-14T21:13:04.456Z,49679.16
2023-05-14T21:15:31.259Z,49703.09
2023-05-14T21:17:58.110Z,49679.16
2023-05-14T21:20:24.880Z,49703.09
2023-05-14T21:22:51.544Z,49695.09
2023-05-14T21:25:18.439Z,49689.13
2023-05-14T21:27:45.083Z,49703.09
2023-05-14T21:30:12.499Z,49689.13
2023-05-14T21:32:39.305Z,49663.22
2023-05-14T21:35:06.258Z,49687.13
2023-05-14T21:37:33.260Z,49685.13
2023-05-14T21:40:00.044Z,49693.13
2023-05-14T21:42:26.711Z,49671.19
2023-05-14T21:44:53.351Z,49687.13
2023-05-14T21:47:21.106Z,49691.13
2023-05-14T21:49:47.722Z,49723.03
2023-05-14T21:52:14.522Z,49663.22
2023-05-14T21:54:41.164Z,49663.22
2023-05-14T21:57:07.824Z,49687.13
2023-05-14T21:59:35.477Z,49705.06
2023-05-14T22:04:31.908Z,49701.09
2023-05-14T22:06:58.623Z,49736.97
2023-05-14T22:09:25.798Z,49703.09
2023-05-14T22:11:52.445Z,49719.03
2023-05-14T22:14:19.103Z,49699.09
2023-05-14T22:16:45.795Z,49715.03
2023-05-14T22:19:12.747Z,49697.09
2023-05-14T22:21:39.441Z,49727.00
2023-05-14T22:24:06.394Z,49725.00
2023-05-14T22:26:33.477Z,49673.19
2023-05-14T22:29:00.127Z,49697.09
2023-05-14T22:31:26.954Z,49673.19
2023-05-14T22:33:53.737Z,49717.03
2023-05-14T22:36:20.540Z,49719.03
2023-05-14T22:38:47.389Z,49715.03
2023-05-14T22:41:14.122Z,49719.03
2023-05-14T22:43:40.858Z,49713.06
2023-05-14T22:46:07.581Z,49731.00
2023-05-14T22:48:34.291Z,49744.94
2023-05-14T22:51:00.999Z,49655.25
2023-05-14T22:53:27.711Z,49707.06
2023-05-14T22:55:54.427Z,49665.22
2023-05-14T22:58:21.088Z,49703.09
2023-05-14T23:00:47.980Z,49709.06
2023-05-14T23:03:14.637Z,49723.03
2023-05-14T23:05:41.411Z,49723.03
2023-05-14T23:08:08.129Z,49746.94
2023-05-14T23:10:35.583Z,49731.00
2023-05-14T23:13:02.348Z,49723.03
2023-05-14T23:15:29.141Z,49673.19
2023-05-14T23:17:55.982Z,49734.97
2023-05-14T23:20:22.726Z,49703.09
2023-05-14T23:22:49.580Z,49707.06
2023-05-14T23:25:16.227Z,49707.06
2023-05-14T23:27:42.911Z,49734.97
2023-05-14T23:30:10.225Z,49723.03
2023-05-14T23:32:36.983Z,49691.13
2023-05-14T23:35:03.989Z,49752.91
2023-05-14T23:37:30.749Z,49707.06
2023-05-14T23:39:57.382Z,49709.06
2023-05-14T23:42:24.777Z,49752.91
2023-05-14T23:44:51.468Z,49754.91
2023-05-14T23:47:18.147Z,49733.00
2023-05-14T23:49:44.945Z,49719.03
2023-05-14T23:52:11.620Z,49727.00
2023-05-14T23:54:38.912Z,49715.03
2023-05-14T23:57:05.818Z,49727.00
2023-05-14T23:59:32.512Z,49738.97
